createdAt,value
2019-04-28T00:03:46.171Z,100826.59
2019-04-28T00:06:24.328Z,100823.59
2019-04-28T00:08:52.958Z,100820.68
2019-04-28T00:11:27.582Z,100826.23
2019-04-28T00:13:56.483Z,100827.88
2019-04-28T00:16:25.250Z,100819.16
2019-04-28T00:18:55.471Z,100820.94
2019-04-28T00:21:28.447Z,100823.69
2019-04-28T00:24:11.468Z,100820.33
2019-04-28T00:26:45.366Z,100822.05
2019-04-28T00:29:23.302Z,100820.14
2019-04-28T00:31:52.214Z,100821.05
2019-04-28T00:34:31.296Z,100822.98
2019-04-28T00:37:01.477Z,100823.41
2019-04-28T00:39:35.484Z,100825.62
2019-04-28T00:42:07.667Z,100816.48
2019-04-28T00:44:36.382Z,100824.41
2019-04-28T00:47:10.887Z,100813.84
2019-04-28T00:49:51.917Z,100815.95
2019-04-28T00:52:22.183Z,100815.64
2019-04-28T00:54:52.548Z,100816.73
2019-04-28T00:57:21.852Z,100812.26
2019-04-28T00:59:58.491Z,100813.23
2019-04-28T01:02:41.117Z,100812.59
2019-04-28T01:05:25.381Z,100811.75
2019-04-28T01:07:54.164Z,100816.36
2019-04-28T01:10:23.882Z,100810.08
2019-04-28T01:12:52.542Z,100811.57
2019-04-28T01:15:29.821Z,100805.42
2019-04-28T01:18:04.502Z,100810.77
2019-04-28T01:20:32.974Z,100811.33
2019-04-28T01:23:10.323Z,100812.83
2019-04-28T01:25:43.424Z,100815.00
2019-04-28T01:28:14.844Z,100821.62
2019-04-28T01:30:49.935Z,100820.41
2019-04-28T01:33:23.217Z,100829.19
2019-04-28T01:35:51.672Z,100829.84
2019-04-28T01:38:20.548Z,100828.09
2019-04-28T01:40:50.030Z,100829.14
2019-04-28T01:43:19.618Z,100825.71
2019-04-28T01:45:50.091Z,100826.07
2019-04-28T01:48:19.863Z,100835.72
2019-04-28T01:51:19.097Z,100833.70
2019-04-28T01:56:42.412Z,100834.85
2019-04-28T01:59:11.129Z,100835.19
2019-04-28T02:01:40.050Z,100838.02
2019-04-28T02:04:11.868Z,100840.56
2019-04-28T02:06:42.121Z,100836.52
2019-04-28T02:09:11.067Z,100838.62
2019-04-28T02:11:41.238Z,100835.48
2019-04-28T02:14:10.018Z,100836.33
2019-04-28T02:16:40.421Z,100831.52
2019-04-28T02:19:10.619Z,100834.25
2019-04-28T02:21:41.074Z,100831.69
2019-04-28T02:24:37.487Z,100834.45
2019-04-28T02:27:06.426Z,100831.48
2019-04-28T02:29:35.271Z,100828.36
2019-04-28T02:32:04.186Z,100833.89
2019-04-28T02:34:32.872Z,100834.65
2019-04-28T02:37:02.032Z,100834.25
2019-04-28T02:39:31.522Z,100834.17
2019-04-28T02:42:01.330Z,100840.22
2019-04-28T02:44:34.078Z,100842.86
2019-04-28T02:47:01.185Z,100849.53
2019-04-28T02:49:34.074Z,100849.17
2019-04-28T02:52:04.172Z,100847.27
2019-04-28T02:54:32.822Z,100850.80
2019-04-28T02:57:23.420Z,100842.40
2019-04-28T02:59:51.982Z,100844.81
2019-04-28T03:02:21.020Z,100850.98
2019-04-28T03:04:50.582Z,100851.83
2019-04-28T03:07:25.867Z,100848.36
2019-04-28T03:09:54.536Z,100846.52
2019-04-28T03:12:23.058Z,100847.13
2019-04-28T03:14:51.570Z,100846.55
2019-04-28T03:17:23.243Z,100845.07
2019-04-28T03:19:51.968Z,100840.50
2019-04-28T03:22:20.990Z,100838.22
2019-04-28T03:24:51.555Z,100833.30
2019-04-28T03:30:03.603Z,100827.08
2019-04-28T03:32:45.296Z,100832.69
2019-04-28T03:35:14.763Z,100831.01
2019-04-28T03:37:43.441Z,100832.01
2019-04-28T03:40:12.079Z,100832.09
2019-04-28T03:42:41.194Z,100845.95
2019-04-28T03:45:11.905Z,100845.38
2019-04-28T03:47:40.935Z,100849.71
2019-04-28T03:50:10.626Z,100852.68
2019-04-28T03:52:41.440Z,100850.58
2019-04-28T03:55:11.713Z,100853.05
2019-04-28T03:57:41.217Z,100850.87
2019-04-28T04:00:11.175Z,100852.05
2019-04-28T04:02:56.160Z,100854.84
2019-04-28T04:05:26.329Z,100856.12
2019-04-28T04:07:54.801Z,100857.48
2019-04-28T04:10:30.664Z,100847.20
2019-04-28T04:13:01.070Z,100850.92
2019-04-28T04:16:01.641Z,100851.39
2019-04-28T04:31:34.685Z,100855.13
2019-04-28T04:34:11.111Z,100851.92
2019-04-28T04:36:41.625Z,100858.66
2019-04-28T04:39:10.830Z,100851.99
2019-04-28T04:41:40.882Z,100862.98
2019-04-28T04:44:11.182Z,100858.03
2019-04-28T04:46:41.417Z,100861.03
2019-04-28T04:49:10.852Z,100865.62
2019-04-28T04:51:43.361Z,100870.16
2019-04-28T04:54:10.842Z,100864.84
2019-04-28T04:56:40.175Z,100868.72
2019-04-28T04:59:10.814Z,100879.92
2019-04-28T05:02:01.723Z,100872.00
2019-04-28T05:04:29.902Z,100867.67
2019-04-28T05:06:59.705Z,100878.82
2019-04-28T05:09:29.552Z,100869.70
2019-04-28T05:12:02.197Z,100877.91
2019-04-28T05:14:30.608Z,100887.25
2019-04-28T05:17:00.826Z,100882.58
2019-04-28T05:19:29.859Z,100885.31
2019-04-28T05:22:00.063Z,100886.80
2019-04-28T05:24:53.004Z,100888.21
2019-04-28T05:27:22.154Z,100888.79
2019-04-28T05:29:51.199Z,100889.13
2019-04-28T05:32:20.537Z,100894.91
2019-04-28T05:34:52.640Z,100900.11
2019-04-28T05:37:21.190Z,100900.30
2019-04-28T05:39:52.440Z,100897.77
2019-04-28T05:42:20.204Z,100903.63
2019-04-28T05:44:49.655Z,100901.59
2019-04-28T05:47:20.341Z,100894.65
2019-04-28T05:50:13.108Z,100897.63
2019-04-28T05:53:04.215Z,100902.07
2019-04-28T05:55:36.095Z,100906.58
2019-04-28T05:58:12.369Z,100908.22
2019-04-28T06:00:45.255Z,100906.84
2019-04-28T06:03:33.363Z,100908.58
2019-04-28T06:06:24.951Z,100906.41
2019-04-28T06:08:59.840Z,100910.73
2019-04-28T06:11:46.659Z,100913.67
2019-04-28T06:14:32.063Z,100913.19
2019-04-28T06:17:01.528Z,100910.26
2019-04-28T06:19:30.877Z,100912.76
2019-04-28T06:24:52.147Z,100913.36
2019-04-28T06:27:23.519Z,100912.89
2019-04-28T06:29:52.012Z,100914.25
2019-04-28T06:35:34.271Z,100919.79
2019-04-28T06:38:02.932Z,100913.65
2019-04-28T06:41:23.151Z,100919.91
2019-04-28T06:43:51.639Z,100923.33
2019-04-28T06:46:20.395Z,100919.30
2019-04-28T06:48:49.003Z,100921.59
2019-04-28T06:51:17.654Z,100917.95
2019-04-28T06:53:46.167Z,100915.09
2019-04-28T06:56:14.879Z,100918.51
2019-04-28T06:58:43.380Z,100927.70
2019-04-28T07:01:22.875Z,100921.05
2019-04-28T07:04:01.203Z,100919.77
2019-04-28T07:06:40.368Z,100922.38
2019-04-28T07:09:18.996Z,100924.22
2019-04-28T07:12:07.793Z,100925.71
2019-04-28T07:14:52.988Z,100930.19
2019-04-28T07:23:39.554Z,100933.25
2019-04-28T07:34:03.023Z,100942.92
2019-04-28T07:36:34.969Z,100939.63
2019-04-28T07:43:10.635Z,100937.63
2019-04-28T07:45:47.204Z,100945.32
2019-04-28T07:48:44.271Z,100949.65
2019-04-28T07:52:01.283Z,100956.11
2019-04-28T07:54:30.363Z,100959.93
2019-04-28T08:01:45.381Z,100960.38
2019-04-28T08:03:48.797Z,100964.78
2019-04-28T08:06:48.124Z,100970.52
2019-04-28T08:09:41.293Z,100965.65
2019-04-28T08:21:38.467Z,100966.91
2019-04-28T08:26:48.510Z,100961.09
2019-04-28T08:29:17.399Z,100955.27
2019-04-28T08:31:56.513Z,100965.27
2019-04-28T08:37:47.679Z,100962.52
2019-04-28T08:40:16.568Z,100956.83
2019-04-28T08:45:43.809Z,100958.61
2019-04-28T08:48:15.767Z,100955.02
2019-04-28T08:50:44.603Z,100958.83
2019-04-28T08:59:47.079Z,100954.11
2019-04-28T09:03:19.638Z,100955.41
2019-04-28T09:09:28.748Z,100965.87
2019-04-28T09:12:02.376Z,100968.82
2019-04-28T09:20:08.363Z,100973.95
2019-04-28T09:22:36.778Z,100973.48
2019-04-28T09:25:07.135Z,100969.33
2019-04-28T09:27:35.601Z,100966.84
2019-04-28T09:30:05.761Z,100981.03
2019-04-28T09:32:34.236Z,100971.19
2019-04-28T09:35:02.749Z,100966.47
2019-04-28T09:37:31.183Z,100970.09
2019-04-28T09:40:01.277Z,100973.45
2019-04-28T09:42:31.320Z,100971.67
2019-04-28T09:45:15.895Z,100959.35
2019-04-28T09:47:44.319Z,100963.79
2019-04-28T09:50:12.780Z,100960.61
2019-04-28T09:52:41.257Z,100952.20
2019-04-28T09:55:09.821Z,100953.23
2019-04-28T09:57:38.282Z,100943.76
2019-04-28T10:00:08.293Z,100946.63
2019-04-28T10:02:36.799Z,100947.27
2019-04-28T10:05:08.844Z,100944.93
2019-04-28T10:07:37.358Z,100933.55
2019-04-28T10:10:08.102Z,100928.68
2019-04-28T10:12:36.592Z,100930.80
2019-04-28T10:15:09.036Z,100920.77
2019-04-28T10:17:37.810Z,100922.38
2019-04-28T10:20:07.117Z,100919.44
2019-04-28T10:22:36.216Z,100918.06
2019-04-28T10:25:08.109Z,100910.23
2019-04-28T10:27:36.512Z,100906.02
2019-04-28T10:30:09.532Z,100911.05
2019-04-28T10:32:37.966Z,100926.09
2019-04-28T10:35:08.407Z,100916.73
2019-04-28T10:37:37.092Z,100907.55
2019-04-28T10:40:14.855Z,100918.08
2019-04-28T10:42:43.288Z,100915.44
2019-04-28T10:45:13.598Z,100919.41
2019-04-28T10:47:42.073Z,100914.98
2019-04-28T10:50:11.156Z,100927.25
2019-04-28T10:52:39.550Z,100920.19
2019-04-28T10:55:08.467Z,100917.77
2019-04-28T10:57:36.932Z,100921.41
2019-04-28T11:00:08.176Z,100921.55
2019-04-28T11:02:36.593Z,100923.14
2019-04-28T11:05:09.042Z,100925.27
2019-04-28T11:07:37.675Z,100923.23
2019-04-28T11:10:15.362Z,100928.45
2019-04-28T11:12:43.829Z,100937.23
2019-04-28T11:15:14.005Z,100929.81
2019-04-28T11:17:42.435Z,100928.29
2019-04-28T11:20:11.289Z,100923.48
2019-04-28T11:22:39.708Z,100916.13
2019-04-28T11:25:08.365Z,100914.55
2019-04-28T11:27:37.196Z,100911.36
2019-04-28T11:30:08.107Z,100909.30
2019-04-28T11:32:37.923Z,100906.44
2019-04-28T11:35:21.765Z,100910.12
2019-04-28T11:37:48.247Z,100905.36
2019-04-28T11:40:16.675Z,100893.22
2019-04-28T11:42:45.081Z,100880.47
2019-04-28T11:45:13.660Z,100882.84
2019-04-28T11:47:42.059Z,100892.33
2019-04-28T11:50:10.800Z,100896.48
2019-04-28T11:52:39.250Z,100894.86
2019-04-28T11:55:07.643Z,100898.23
2019-04-28T11:57:37.716Z,100899.73
2019-04-28T12:00:08.421Z,100893.53
2019-04-28T12:02:36.870Z,100894.37
2019-04-28T12:05:06.374Z,100884.52
2019-04-28T12:07:34.775Z,100889.98
2019-04-28T12:10:07.975Z,100896.58
2019-04-28T12:12:41.210Z,100888.86
2019-04-28T12:15:11.404Z,100891.66
2019-04-28T12:17:41.486Z,100892.50
2019-04-28T12:20:11.563Z,100881.55
2019-04-28T12:22:39.983Z,100886.86
2019-04-28T12:25:08.486Z,100889.48
2019-04-28T12:27:36.906Z,100885.83
2019-04-28T12:30:06.336Z,100890.84
2019-04-28T12:32:34.740Z,100889.13
2019-04-28T12:35:03.173Z,100899.82
2019-04-28T12:37:31.579Z,100897.75
2019-04-28T12:40:00.016Z,100900.83
2019-04-28T12:42:28.437Z,100905.50
2019-04-28T12:44:56.871Z,100910.22
2019-04-28T12:47:25.279Z,100905.47
2019-04-28T12:49:55.360Z,100907.30
2019-04-28T12:52:23.872Z,100915.27
2019-04-28T12:54:52.282Z,100923.58
2019-04-28T12:57:21.002Z,100926.02
2019-04-28T12:59:53.164Z,100926.22
2019-04-28T13:02:23.014Z,100920.70
2019-04-28T13:04:53.078Z,100925.97
2019-04-28T13:07:21.495Z,100929.09
2019-04-28T13:09:50.049Z,100924.20
2019-04-28T13:12:18.478Z,100928.11
2019-04-28T13:14:46.978Z,100921.52
2019-04-28T13:17:15.396Z,100919.15
2019-04-28T13:19:43.897Z,100921.67
2019-04-28T13:22:12.336Z,100912.62
2019-04-28T13:24:40.841Z,100908.56
2019-04-28T13:27:10.333Z,100899.90
2019-04-28T13:29:38.882Z,100908.58
2019-04-28T13:32:07.286Z,100902.58
2019-04-28T13:34:37.420Z,100904.66
2019-04-28T13:37:05.925Z,100899.20
2019-04-28T13:39:36.138Z,100896.13
2019-04-28T13:42:05.411Z,100888.98
2019-04-28T13:44:51.750Z,100894.20
2019-04-28T13:47:20.908Z,100890.70
2019-04-28T13:50:07.103Z,100891.64
2019-04-28T13:52:35.623Z,100891.27
2019-04-28T13:55:12.195Z,100893.17
2019-04-28T13:57:42.344Z,100900.02
2019-04-28T14:00:12.730Z,100892.47
2019-04-28T14:02:42.763Z,100893.38
2019-04-28T14:05:13.315Z,100887.80
2019-04-28T14:07:41.768Z,100887.45
2019-04-28T14:10:10.348Z,100890.44
2019-04-28T14:12:38.793Z,100887.70
2019-04-28T14:15:07.353Z,100888.75
2019-04-28T14:17:35.931Z,100877.48
2019-04-28T14:20:06.795Z,100873.14
2019-04-28T14:22:35.280Z,100875.03
2019-04-28T14:25:04.915Z,100867.91
2019-04-28T14:27:33.462Z,100870.70
2019-04-28T14:30:01.860Z,100871.73
2019-04-28T14:32:30.290Z,100863.33
2019-04-28T14:34:58.819Z,100862.91
2019-04-28T14:37:27.198Z,100867.73
2019-04-28T14:39:55.914Z,100862.52
2019-04-28T14:42:24.321Z,100859.98
2019-04-28T14:44:52.758Z,100858.84
2019-04-28T14:47:21.193Z,100855.02
2019-04-28T14:49:49.638Z,100856.06
2019-04-28T14:52:18.049Z,100849.17
2019-04-28T14:54:46.494Z,100849.47
2019-04-28T14:57:15.029Z,100850.45
2019-04-28T14:59:43.384Z,100846.80
2019-04-28T15:02:13.554Z,100848.48
2019-04-28T15:04:59.669Z,100851.01
2019-04-28T15:07:45.628Z,100854.78
2019-04-28T15:10:32.098Z,100847.64
2019-04-28T15:13:00.568Z,100855.24
2019-04-28T15:15:29.106Z,100852.34
2019-04-28T15:17:57.570Z,100838.02
2019-04-28T15:20:26.035Z,100844.00
2019-04-28T15:22:54.417Z,100844.98
2019-04-28T15:25:22.826Z,100841.82
2019-04-28T15:27:51.236Z,100845.39
2019-04-28T15:30:19.674Z,100846.51
2019-04-28T15:32:48.266Z,100846.84
2019-04-28T15:35:16.784Z,100849.72
2019-04-28T15:37:45.250Z,100852.12
2019-04-28T15:40:13.642Z,100856.91
2019-04-28T15:42:42.082Z,100866.78
2019-04-28T15:45:10.920Z,100867.52
2019-04-28T15:47:39.357Z,100870.97
2019-04-28T15:50:07.988Z,100868.50
2019-04-28T15:52:36.422Z,100865.94
2019-04-28T15:55:08.302Z,100871.22
2019-04-28T15:57:36.888Z,100871.66
2019-04-28T16:00:08.783Z,100871.27
2019-04-28T16:02:37.256Z,100880.53
2019-04-28T16:05:07.578Z,100878.25
2019-04-28T16:07:36.034Z,100874.13
2019-04-28T16:10:06.892Z,100874.47
2019-04-28T16:12:35.372Z,100878.95
2019-04-28T16:15:07.378Z,100878.68
2019-04-28T16:17:35.451Z,100889.38
2019-04-28T16:20:06.323Z,100892.28
2019-04-28T16:22:34.784Z,100892.88
2019-04-28T16:25:04.294Z,100888.34
2019-04-28T16:27:32.710Z,100887.72
2019-04-28T16:30:01.128Z,100889.09
2019-04-28T16:32:29.558Z,100886.95
2019-04-28T16:34:57.983Z,100887.43
2019-04-28T16:37:38.230Z,100892.81
2019-04-28T16:39:56.823Z,100903.16
2019-04-28T16:42:27.123Z,100901.75
2019-04-28T16:44:58.836Z,100905.39
2019-04-28T16:47:27.230Z,100908.20
2019-04-28T16:49:55.757Z,100906.98
2019-04-28T16:52:24.206Z,100903.62
2019-04-28T16:54:54.255Z,100907.23
2019-04-28T16:57:27.232Z,100912.29
2019-04-28T16:59:57.297Z,100918.40
2019-04-28T17:02:30.598Z,100918.24
2019-04-28T17:04:59.040Z,100924.95
2019-04-28T17:07:27.540Z,100910.33
2019-04-28T17:09:55.942Z,100920.03
2019-04-28T17:12:24.384Z,100919.19
2019-04-28T17:14:52.814Z,100920.95
2019-04-28T17:17:21.221Z,100924.09
2019-04-28T17:19:49.724Z,100922.24
2019-04-28T17:22:19.488Z,100921.33
2019-04-28T17:24:48.113Z,100929.97
2019-04-28T17:27:16.759Z,100927.59
2019-04-28T17:29:45.306Z,100939.00
2019-04-28T17:32:13.787Z,100943.05
2019-04-28T17:34:42.193Z,100935.95
2019-04-28T17:37:11.392Z,100939.73
2019-04-28T17:39:39.798Z,100937.53
2019-04-28T17:42:09.129Z,100939.48
2019-04-28T17:44:37.534Z,100932.84
2019-04-28T17:47:05.962Z,100931.64
2019-04-28T17:49:36.082Z,100936.23
2019-04-28T17:52:05.712Z,100942.39
2019-04-28T17:54:34.538Z,100943.25
2019-04-28T17:57:03.809Z,100944.44
2019-04-28T17:59:32.239Z,100938.99
2019-04-28T18:02:18.266Z,100943.25
2019-04-28T18:04:51.030Z,100951.70
2019-04-28T18:07:21.096Z,100954.51
2019-04-28T18:09:49.595Z,100962.91
2019-04-28T18:12:18.081Z,100962.05
2019-04-28T18:14:48.223Z,100970.52
2019-04-28T18:17:18.412Z,100968.00
2019-04-28T18:19:46.796Z,100973.81
2019-04-28T18:22:15.314Z,100970.91
2019-04-28T18:24:43.890Z,100975.81
2019-04-28T18:27:12.282Z,100979.66
2019-04-28T18:29:40.680Z,100978.11
2019-04-28T18:32:25.738Z,100980.19
2019-04-28T18:34:58.901Z,100983.66
2019-04-28T18:37:38.490Z,100990.83
2019-04-28T18:40:21.538Z,100995.47
2019-04-28T18:42:51.636Z,101003.21
2019-04-28T18:45:20.093Z,101002.51
2019-04-28T18:47:48.492Z,101008.77
2019-04-28T18:50:17.049Z,101016.12
2019-04-28T18:52:45.473Z,101014.56
2019-04-28T18:55:14.136Z,101019.67
2019-04-28T18:57:42.591Z,101019.73
2019-04-28T19:00:11.410Z,101023.55
2019-04-28T19:02:41.539Z,101029.50
2019-04-28T19:05:10.593Z,101030.48
2019-04-28T19:07:43.257Z,101035.21
2019-04-28T19:10:13.451Z,101034.80
2019-04-28T19:12:43.516Z,101040.52
2019-04-28T19:15:29.831Z,101040.97
2019-04-28T19:18:02.641Z,101050.67
2019-04-28T19:20:31.047Z,101053.39
2019-04-28T19:22:59.506Z,101049.41
2019-04-28T19:25:27.923Z,101052.26
2019-04-28T19:27:56.342Z,101047.50
2019-04-28T19:30:24.902Z,101049.90
2019-04-28T19:32:53.306Z,101055.38
2019-04-28T19:35:21.737Z,101052.78
2019-04-28T19:37:50.174Z,101057.60
2019-04-28T19:40:18.594Z,101068.70
2019-04-28T19:42:47.013Z,101062.22
2019-04-28T19:45:17.478Z,101064.77
2019-04-28T19:47:45.968Z,101073.58
2019-04-28T19:50:14.591Z,101073.87
2019-04-28T19:52:43.085Z,101070.38
2019-04-28T19:55:16.866Z,101076.37
2019-04-28T19:57:46.954Z,101075.78
2019-04-28T20:00:23.516Z,101077.23
2019-04-28T20:02:52.000Z,101074.98
2019-04-28T20:05:20.431Z,101077.76
2019-04-28T20:07:48.864Z,101074.42
2019-04-28T20:10:17.299Z,101072.67
2019-04-28T20:12:45.786Z,101079.50
2019-04-28T20:15:14.351Z,101080.53
2019-04-28T20:17:42.772Z,101080.17
2019-04-28T20:20:11.560Z,101081.33
2019-04-28T20:22:41.517Z,101083.39
2019-04-28T20:25:10.897Z,101079.06
2019-04-28T20:27:39.302Z,101083.45
2019-04-28T20:30:08.687Z,101089.18
2019-04-28T20:32:44.928Z,101093.83
2019-04-28T20:35:16.103Z,101092.03
2019-04-28T20:37:49.401Z,101089.72
2019-04-28T20:40:19.483Z,101094.66
2019-04-28T20:42:58.308Z,101100.75
2019-04-28T20:45:26.814Z,101096.91
2019-04-28T20:47:55.210Z,101106.95
2019-04-28T20:50:23.639Z,101111.78
2019-04-28T20:52:52.100Z,101119.08
2019-04-28T20:55:20.506Z,101123.78
2019-04-28T20:57:48.989Z,101132.70
2019-04-28T21:00:17.469Z,101133.28
2019-04-28T21:02:45.923Z,101139.73
2019-04-28T21:05:14.490Z,101138.60
2019-04-28T21:07:42.921Z,101144.70
2019-04-28T21:10:11.667Z,101140.70
2019-04-28T21:12:40.088Z,101142.57
2019-04-28T21:15:09.349Z,101139.72
2019-04-28T21:17:37.985Z,101138.67
2019-04-28T21:20:07.363Z,101146.14
2019-04-28T21:22:35.748Z,101146.11
2019-04-28T21:25:06.057Z,101147.87
2019-04-28T21:27:34.490Z,101149.92
2019-04-28T21:30:02.909Z,101154.91
2019-04-28T21:32:31.330Z,101154.78
2019-04-28T21:34:59.731Z,101156.27
2019-04-28T21:37:28.154Z,101147.72
2019-04-28T21:39:56.573Z,101148.03
2019-04-28T21:42:26.642Z,101153.53
2019-04-28T21:45:12.859Z,101157.66
2019-04-28T21:47:41.750Z,101160.79
2019-04-28T21:50:10.241Z,101156.06
2019-04-28T21:52:38.657Z,101151.82
2019-04-28T21:55:07.649Z,101158.58
2019-04-28T21:57:36.133Z,101150.92
2019-04-28T22:00:09.476Z,101151.13
2019-04-28T22:02:37.911Z,101150.42
2019-04-28T22:05:07.373Z,101155.81
2019-04-28T22:07:35.780Z,101161.37
2019-04-28T22:10:06.428Z,101166.79
2019-04-28T22:12:34.850Z,101172.19
2019-04-28T22:15:03.329Z,101170.51
2019-04-28T22:17:31.745Z,101164.95
2019-04-28T22:20:00.151Z,101172.48
2019-04-28T22:22:28.753Z,101176.32
2019-04-28T22:24:58.806Z,101178.23
2019-04-28T22:27:28.954Z,101173.89
2019-04-28T22:29:57.343Z,101179.29
2019-04-28T22:32:25.733Z,101181.83
2019-04-28T22:34:54.167Z,101181.36
2019-04-28T22:37:22.577Z,101178.58
2019-04-28T22:39:50.973Z,101182.33
2019-04-28T22:42:19.411Z,101182.47
2019-04-28T22:44:47.831Z,101178.50
2019-04-28T22:47:16.221Z,101183.80
2019-04-28T22:49:44.623Z,101184.25
2019-04-28T22:52:13.059Z,101185.36
2019-04-28T22:54:43.127Z,101188.36
2019-04-28T22:57:15.881Z,101184.75
2019-04-28T22:59:48.823Z,101191.34
2019-04-28T23:02:18.864Z,101191.13
2019-04-28T23:04:58.065Z,101185.72
2019-04-28T23:07:26.467Z,101199.52
2019-04-28T23:09:55.061Z,101190.66
2019-04-28T23:12:23.465Z,101196.14
2019-04-28T23:14:51.904Z,101206.60
2019-04-28T23:17:20.583Z,101203.50
2019-04-28T23:19:49.152Z,101210.11
2019-04-28T23:22:30.884Z,101203.98
2019-04-28T23:24:59.270Z,101216.00
2019-04-28T23:27:27.662Z,101213.48
2019-04-28T23:29:56.080Z,101217.19
2019-04-28T23:32:24.485Z,101210.11
2019-04-28T23:34:52.922Z,101214.42
2019-04-28T23:37:21.300Z,101211.53
2019-04-28T23:39:49.931Z,101209.73
2019-04-28T23:42:20.030Z,101212.23
2019-04-28T23:44:48.412Z,101217.52
2019-04-28T23:47:16.896Z,101211.75
2019-04-28T23:49:45.326Z,101212.94
2019-04-28T23:52:21.391Z,101213.55
2019-04-28T23:54:51.418Z,101217.88
2019-04-28T23:57:19.843Z,101214.14
2019-04-28T23:59:48.263Z,101215.69
